sensor_id;sensor_type;location;lat;lon;timestamp;temperature;humidity
19224;DHT22;9746;47.180;9.776;2023-03-09T08:57:26;9.90;99.90
19224;DHT22;9746;47.180;9.776;2023-03-09T08:59:54;10.10;99.90
19224;DHT22;9746;47.180;9.776;2023-03-09T09:02:27;10.40;99.90
19224;DHT22;9746;47.180;9.776;2023-03-09T09:04:54;10.60;99.90
19224;DHT22;9746;47.180;9.776;2023-03-09T09:07:29;11.10;99.90
19224;DHT22;9746;47.180;9.776;2023-03-09T09:09:56;11.30;99.90
19224;DHT22;9746;47.180;9.776;2023-03-09T09:12:27;11.20;99.90
19224;DHT22;9746;47.180;9.776;2023-03-09T09:14:58;11.20;99.90
19224;DHT22;9746;47.180;9.776;2023-03-09T09:17:27;11.30;99.90
19224;DHT22;9746;47.180;9.776;2023-03-09T09:19:54;11.40;99.90
19224;DHT22;9746;47.180;9.776;2023-03-09T09:22:25;11.60;99.90
19224;DHT22;9746;47.180;9.776;2023-03-09T09:24:53;11.40;99.90
19224;DHT22;9746;47.180;9.776;2023-03-09T09:27:20;11.40;99.90
19224;DHT22;9746;47.180;9.776;2023-03-09T09:29:49;11.40;99.90
19224;DHT22;9746;47.180;9.776;2023-03-09T09:32:19;11.30;99.90
19224;DHT22;9746;47.180;9.776;2023-03-09T09:34:47;11.20;99.90
19224;DHT22;9746;47.180;9.776;2023-03-09T09:37:15;11.30;99.90
19224;DHT22;9746;47.180;9.776;2023-03-09T09:39:44;11.60;99.90
19224;DHT22;9746;47.180;9.776;2023-03-09T09:42:18;11.60;99.90
19224;DHT22;9746;47.180;9.776;2023-03-09T09:44:50;11.90;99.90
19224;DHT22;9746;47.180;9.776;2023-03-09T09:47:22;12.30;99.90
19224;DHT22;9746;47.180;9.776;2023-03-09T09:49:52;12.60;99.90
19224;DHT22;9746;47.180;9.776;2023-03-09T09:52:38;12.80;99.90
19224;DHT22;9746;47.180;9.776;2023-03-09T09:55:18;13.30;99.90
19224;DHT22;9746;47.180;9.776;2023-03-09T09:57:58;13.80;99.90
19224;DHT22;9746;47.180;9.776;2023-03-09T10:00:33;14.00;99.90
19224;DHT22;9746;47.180;9.776;2023-03-09T10:03:09;14.10;99.90
19224;DHT22;9746;47.180;9.776;2023-03-09T10:05:43;14.30;99.90
19224;DHT22;9746;47.180;9.776;2023-03-09T10:08:20;14.40;99.90
19224;DHT22;9746;47.180;9.776;2023-03-09T10:10:50;14.70;99.90
19224;DHT22;9746;47.180;9.776;2023-03-09T10:13:23;15.20;99.90
19224;DHT22;9746;47.180;9.776;2023-03-09T10:15:58;15.40;99.90
19224;DHT22;9746;47.180;9.776;2023-03-09T10:18:32;15.70;99.90
19224;DHT22;9746;47.180;9.776;2023-03-09T10:21:12;15.70;99.90
19224;DHT22;9746;47.180;9.776;2023-03-09T10:23:42;15.60;99.90
19224;DHT22;9746;47.180;9.776;2023-03-09T10:26:21;15.90;99.90
19224;DHT22;9746;47.180;9.776;2023-03-09T10:28:51;16.30;99.90
19224;DHT22;9746;47.180;9.776;2023-03-09T10:31:30;16.50;99.90
19224;DHT22;9746;47.180;9.776;2023-03-09T10:34:04;16.50;99.90
19224;DHT22;9746;47.180;9.776;2023-03-09T10:36:53;16.10;99.90
19224;DHT22;9746;47.180;9.776;2023-03-09T10:39:23;16.40;99.90
19224;DHT22;9746;47.180;9.776;2023-03-09T10:41:53;16.60;99.90
19224;DHT22;9746;47.180;9.776;2023-03-09T10:44:22;16.70;99.90
19224;DHT22;9746;47.180;9.776;2023-03-09T10:47:01;17.20;99.90
19224;DHT22;9746;47.180;9.776;2023-03-09T10:49:29;17.70;99.90
19224;DHT22;9746;47.180;9.776;2023-03-09T10:52:17;18.00;99.90
19224;DHT22;9746;47.180;9.776;2023-03-09T10:54:45;18.50;99.90
19224;DHT22;9746;47.180;9.776;2023-03-09T10:57:26;18.60;99.90
19224;DHT22;9746;47.180;9.776;2023-03-09T10:59:56;19.00;99.90
19224;DHT22;9746;47.180;9.776;2023-03-09T11:02:32;19.50;99.90
19224;DHT22;9746;47.180;9.776;2023-03-09T11:05:13;20.00;99.90
19224;DHT22;9746;47.180;9.776;2023-03-09T11:07:50;20.50;99.90
19224;DHT22;9746;47.180;9.776;2023-03-09T11:10:25;20.90;99.90
19224;DHT22;9746;47.180;9.776;2023-03-09T11:12:55;21.40;99.90
19224;DHT22;9746;47.180;9.776;2023-03-09T11:15:27;21.70;99.90
19224;DHT22;9746;47.180;9.776;2023-03-09T11:18:25;21.80;99.90
19224;DHT22;9746;47.180;9.776;2023-03-09T11:20:54;22.20;99.90
19224;DHT22;9746;47.180;9.776;2023-03-09T11:23:38;22.50;99.90
19224;DHT22;9746;47.180;9.776;2023-03-09T11:26:12;22.90;99.90
19224;DHT22;9746;47.180;9.776;2023-03-09T11:28:54;23.10;99.90
19224;DHT22;9746;47.180;9.776;2023-03-09T11:31:38;23.10;99.90
19224;DHT22;9746;47.180;9.776;2023-03-09T11:34:14;23.00;99.90
19224;DHT22;9746;47.180;9.776;2023-03-09T11:36:47;23.10;99.90
19224;DHT22;9746;47.180;9.776;2023-03-09T11:39:20;23.00;99.90
19224;DHT22;9746;47.180;9.776;2023-03-09T11:41:55;22.20;99.90
19224;DHT22;9746;47.180;9.776;2023-03-09T11:44:31;22.10;99.90
19224;DHT22;9746;47.180;9.776;2023-03-09T11:47:05;21.80;99.90
19224;DHT22;9746;47.180;9.776;2023-03-09T11:49:41;21.70;99.90
19224;DHT22;9746;47.180;9.776;2023-03-09T11:52:18;21.50;99.90
19224;DHT22;9746;47.180;9.776;2023-03-09T11:54:49;21.40;99.90
19224;DHT22;9746;47.180;9.776;2023-03-09T11:57:23;21.40;99.90
19224;DHT22;9746;47.180;9.776;2023-03-09T11:59:58;21.10;99.90
19224;DHT22;9746;47.180;9.776;2023-03-09T12:02:37;20.80;99.90
19224;DHT22;9746;47.180;9.776;2023-03-09T12:05:17;20.50;99.90
19224;DHT22;9746;47.180;9.776;2023-03-09T12:07:57;20.10;99.90
19224;DHT22;9746;47.180;9.776;2023-03-09T12:10:29;19.70;99.90
19224;DHT22;9746;47.180;9.776;2023-03-09T12:13:15;19.50;99.90
19224;DHT22;9746;47.180;9.776;2023-03-09T12:15:50;19.20;99.90
19224;DHT22;9746;47.180;9.776;2023-03-09T12:18:21;19.00;99.90
19224;DHT22;9746;47.180;9.776;2023-03-09T12:20:53;18.90;99.90
19224;DHT22;9746;47.180;9.776;2023-03-09T12:23:43;19.10;99.90
19224;DHT22;9746;47.180;9.776;2023-03-09T12:26:30;19.90;99.90
19224;DHT22;9746;47.180;9.776;2023-03-09T12:29:20;20.90;99.90
19224;DHT22;9746;47.180;9.776;2023-03-09T12:32:14;21.30;99.90
19224;DHT22;9746;47.180;9.776;2023-03-09T12:34:44;22.00;99.90
19224;DHT22;9746;47.180;9.776;2023-03-09T12:40:43;22.50;99.90
19224;DHT22;9746;47.180;9.776;2023-03-09T12:46:51;24.00;99.90
19224;DHT22;9746;47.180;9.776;2023-03-09T12:49:28;23.80;99.90
19224;DHT22;9746;47.180;9.776;2023-03-09T12:55:47;23.20;99.90
19224;DHT22;9746;47.180;9.776;2023-03-09T12:58:41;22.70;99.90
19224;DHT22;9746;47.180;9.776;2023-03-09T13:01:12;22.30;99.90
19224;DHT22;9746;47.180;9.776;2023-03-09T13:04:13;21.90;99.90
19224;DHT22;9746;47.180;9.776;2023-03-09T13:06:44;21.30;99.90
19224;DHT22;9746;47.180;9.776;2023-03-09T13:09:29;21.60;99.90
19224;DHT22;9746;47.180;9.776;2023-03-09T13:12:13;22.40;99.90
19224;DHT22;9746;47.180;9.776;2023-03-09T13:15:06;23.50;99.90
19224;DHT22;9746;47.180;9.776;2023-03-09T13:17:44;25.00;99.90
19224;DHT22;9746;47.180;9.776;2023-03-09T13:20:35;26.40;99.50
19224;DHT22;9746;47.180;9.776;2023-03-09T13:23:11;27.40;97.00
19224;DHT22;9746;47.180;9.776;2023-03-09T13:25:48;28.60;96.00
19224;DHT22;9746;47.180;9.776;2023-03-09T13:28:38;29.40;92.90
19224;DHT22;9746;47.180;9.776;2023-03-09T13:31:23;30.00;92.00
19224;DHT22;9746;47.180;9.776;2023-03-09T13:34:03;30.50;89.20
19224;DHT22;9746;47.180;9.776;2023-03-09T13:36:34;30.40;84.80
19224;DHT22;9746;47.180;9.776;2023-03-09T13:39:16;29.70;83.90
19224;DHT22;9746;47.180;9.776;2023-03-09T13:41:46;29.40;85.00
19224;DHT22;9746;47.180;9.776;2023-03-09T13:44:22;29.70;83.90
19224;DHT22;9746;47.180;9.776;2023-03-09T13:46:52;30.30;84.10
19224;DHT22;9746;47.180;9.776;2023-03-09T13:49:28;30.60;81.10
19224;DHT22;9746;47.180;9.776;2023-03-09T13:52:00;30.30;79.30
19224;DHT22;9746;47.180;9.776;2023-03-09T13:54:46;30.30;78.50
19224;DHT22;9746;47.180;9.776;2023-03-09T13:57:17;30.70;77.60
19224;DHT22;9746;47.180;9.776;2023-03-09T13:59:54;31.50;75.10
19224;DHT22;9746;47.180;9.776;2023-03-09T14:02:23;31.90;73.20
19224;DHT22;9746;47.180;9.776;2023-03-09T14:05:04;31.70;74.50
19224;DHT22;9746;47.180;9.776;2023-03-09T14:07:35;31.20;73.90
19224;DHT22;9746;47.180;9.776;2023-03-09T14:10:18;30.40;72.10
19224;DHT22;9746;47.180;9.776;2023-03-09T14:13:03;30.60;72.90
19224;DHT22;9746;47.180;9.776;2023-03-09T14:15:35;30.30;73.00
19224;DHT22;9746;47.180;9.776;2023-03-09T14:18:22;30.50;71.50
19224;DHT22;9746;47.180;9.776;2023-03-09T14:20:52;30.40;70.70
19224;DHT22;9746;47.180;9.776;2023-03-09T14:23:37;30.00;70.70
19224;DHT22;9746;47.180;9.776;2023-03-09T14:26:06;29.50;72.00
19224;DHT22;9746;47.180;9.776;2023-03-09T14:28:56;28.70;71.60
19224;DHT22;9746;47.180;9.776;2023-03-09T14:31:26;28.50;72.80
19224;DHT22;9746;47.180;9.776;2023-03-09T14:34:00;29.30;71.50
19224;DHT22;9746;47.180;9.776;2023-03-09T14:36:33;29.70;71.80
19224;DHT22;9746;47.180;9.776;2023-03-09T14:39:21;30.50;69.00
19224;DHT22;9746;47.180;9.776;2023-03-09T14:42:13;30.80;67.40
19224;DHT22;9746;47.180;9.776;2023-03-09T14:48:08;31.70;65.80
19224;DHT22;9746;47.180;9.776;2023-03-09T14:50:36;32.50;66.40
19224;DHT22;9746;47.180;9.776;2023-03-09T14:53:26;32.60;64.80
19224;DHT22;9746;47.180;9.776;2023-03-09T14:55:53;31.60;64.30
19224;DHT22;9746;47.180;9.776;2023-03-09T14:58:47;30.90;64.60
19224;DHT22;9746;47.180;9.776;2023-03-09T15:01:17;29.60;66.70
19224;DHT22;9746;47.180;9.776;2023-03-09T15:03:55;29.30;67.50
19224;DHT22;9746;47.180;9.776;2023-03-09T15:06:25;29.30;66.60
19224;DHT22;9746;47.180;9.776;2023-03-09T15:09:07;29.10;67.40
19224;DHT22;9746;47.180;9.776;2023-03-09T15:11:36;29.60;66.90
19224;DHT22;9746;47.180;9.776;2023-03-09T15:14:24;30.10;66.50
19224;DHT22;9746;47.180;9.776;2023-03-09T15:16:52;30.30;65.10
19224;DHT22;9746;47.180;9.776;2023-03-09T15:19:22;30.50;63.40
19224;DHT22;9746;47.180;9.776;2023-03-09T15:21:52;30.10;65.10
19224;DHT22;9746;47.180;9.776;2023-03-09T15:24:23;30.50;66.90
19224;DHT22;9746;47.180;9.776;2023-03-09T15:26:55;30.70;64.80
19224;DHT22;9746;47.180;9.776;2023-03-09T15:29:32;30.90;64.40
19224;DHT22;9746;47.180;9.776;2023-03-09T15:32:00;31.40;63.50
19224;DHT22;9746;47.180;9.776;2023-03-09T15:34:35;31.20;63.30
19224;DHT22;9746;47.180;9.776;2023-03-09T15:37:03;31.30;62.70
19224;DHT22;9746;47.180;9.776;2023-03-09T15:40:01;30.60;62.70
19224;DHT22;9746;47.180;9.776;2023-03-09T15:42:29;29.90;62.50
19224;DHT22;9746;47.180;9.776;2023-03-09T15:44:57;29.40;64.30
19224;DHT22;9746;47.180;9.776;2023-03-09T15:47:24;29.30;65.20
19224;DHT22;9746;47.180;9.776;2023-03-09T15:50:00;28.10;66.40
19224;DHT22;9746;47.180;9.776;2023-03-09T15:52:28;26.60;69.00
19224;DHT22;9746;47.180;9.776;2023-03-09T15:55:06;25.20;70.40
19224;DHT22;9746;47.180;9.776;2023-03-09T15:57:34;23.80;73.00
19224;DHT22;9746;47.180;9.776;2023-03-09T16:00:04;22.80;75.70
19224;DHT22;9746;47.180;9.776;2023-03-09T16:02:32;21.90;76.50
19224;DHT22;9746;47.180;9.776;2023-03-09T16:05:35;20.80;78.40
19224;DHT22;9746;47.180;9.776;2023-03-09T16:08:03;19.80;80.40
19224;DHT22;9746;47.180;9.776;2023-03-09T16:10:39;19.00;83.30
19224;DHT22;9746;47.180;9.776;2023-03-09T16:13:06;18.50;86.00
19224;DHT22;9746;47.180;9.776;2023-03-09T16:15:38;17.80;84.60
19224;DHT22;9746;47.180;9.776;2023-03-09T16:18:07;17.40;85.10
19224;DHT22;9746;47.180;9.776;2023-03-09T16:20:48;17.00;86.70
19224;DHT22;9746;47.180;9.776;2023-03-09T16:23:15;16.80;90.50
19224;DHT22;9746;47.180;9.776;2023-03-09T16:26:02;16.60;91.30
19224;DHT22;9746;47.180;9.776;2023-03-09T16:28:30;16.50;90.30
19224;DHT22;9746;47.180;9.776;2023-03-09T16:30:57;16.40;91.10
19224;DHT22;9746;47.180;9.776;2023-03-09T16:33:25;16.20;91.70
19224;DHT22;9746;47.180;9.776;2023-03-09T16:35:59;15.90;92.20
19224;DHT22;9746;47.180;9.776;2023-03-09T16:38:27;15.60;93.60
19224;DHT22;9746;47.180;9.776;2023-03-09T16:41:08;15.30;94.80
19224;DHT22;9746;47.180;9.776;2023-03-09T16:43:36;15.00;94.90
19224;DHT22;9746;47.180;9.776;2023-03-09T16:46:04;14.70;95.60
19224;DHT22;9746;47.180;9.776;2023-03-09T16:48:32;14.40;96.70
19224;DHT22;9746;47.180;9.776;2023-03-09T16:51:02;14.30;95.80
19224;DHT22;9746;47.180;9.776;2023-03-09T16:53:30;14.20;95.50
19224;DHT22;9746;47.180;9.776;2023-03-09T16:56:05;14.20;95.70
19224;DHT22;9746;47.180;9.776;2023-03-09T16:58:33;14.20;96.20
19224;DHT22;9746;47.180;9.776;2023-03-09T17:04:22;14.00;96.30
19224;DHT22;9746;47.180;9.776;2023-03-09T17:06:51;13.90;96.80
19224;DHT22;9746;47.180;9.776;2023-03-09T17:09:20;13.80;96.60
19224;DHT22;9746;47.180;9.776;2023-03-09T17:11:47;13.70;96.70
19224;DHT22;9746;47.180;9.776;2023-03-09T17:17:24;13.60;96.80
19224;DHT22;9746;47.180;9.776;2023-03-09T17:20:14;13.40;97.00
19224;DHT22;9746;47.180;9.776;2023-03-09T17:22:43;13.30;97.60
19224;DHT22;9746;47.180;9.776;2023-03-09T17:28:33;13.10;97.50
19224;DHT22;9746;47.180;9.776;2023-03-09T17:31:11;13.00;98.00
19224;DHT22;9746;47.180;9.776;2023-03-09T17:33:39;12.90;98.60
19224;DHT22;9746;47.180;9.776;2023-03-09T17:36:07;12.80;98.90
19224;DHT22;9746;47.180;9.776;2023-03-09T17:38:36;12.80;98.90
19224;DHT22;9746;47.180;9.776;2023-03-09T17:43:59;12.50;99.80
19224;DHT22;9746;47.180;9.776;2023-03-09T17:46:27;12.40;99.90
19224;DHT22;9746;47.180;9.776;2023-03-09T17:48:54;12.30;99.90
19224;DHT22;9746;47.180;9.776;2023-03-09T17:54:45;11.90;99.90
19224;DHT22;9746;47.180;9.776;2023-03-09T17:57:12;11.80;99.90
19224;DHT22;9746;47.180;9.776;2023-03-09T17:59:54;11.70;99.90
19224;DHT22;9746;47.180;9.776;2023-03-09T18:02:22;11.70;99.90
19224;DHT22;9746;47.180;9.776;2023-03-09T18:05:08;11.60;99.90
19224;DHT22;9746;47.180;9.776;2023-03-09T18:07:36;11.50;99.90
19224;DHT22;9746;47.180;9.776;2023-03-09T18:10:23;11.40;99.90
19224;DHT22;9746;47.180;9.776;2023-03-09T18:12:52;11.40;99.90
19224;DHT22;9746;47.180;9.776;2023-03-09T18:15:38;11.30;99.90
19224;DHT22;9746;47.180;9.776;2023-03-09T18:18:06;11.30;99.90
19224;DHT22;9746;47.180;9.776;2023-03-09T18:20:57;11.20;99.90
19224;DHT22;9746;47.180;9.776;2023-03-09T18:23:25;11.10;99.90
19224;DHT22;9746;47.180;9.776;2023-03-09T18:26:08;10.90;99.90
19224;DHT22;9746;47.180;9.776;2023-03-09T18:29:08;10.80;99.90
19224;DHT22;9746;47.180;9.776;2023-03-09T18:31:42;10.60;99.90
19224;DHT22;9746;47.180;9.776;2023-03-09T18:34:12;10.60;99.90
19224;DHT22;9746;47.180;9.776;2023-03-09T18:36:45;10.50;99.90
19224;DHT22;9746;47.180;9.776;2023-03-09T18:39:13;10.40;99.90
19224;DHT22;9746;47.180;9.776;2023-03-09T18:41:58;10.40;99.90
19224;DHT22;9746;47.180;9.776;2023-03-09T18:44:25;10.30;99.90
19224;DHT22;9746;47.180;9.776;2023-03-09T18:46:53;10.30;99.90
19224;DHT22;9746;47.180;9.776;2023-03-09T18:49:20;10.20;99.90
19224;DHT22;9746;47.180;9.776;2023-03-09T18:51:47;10.10;99.90
19224;DHT22;9746;47.180;9.776;2023-03-09T18:54:15;10.10;99.90
19224;DHT22;9746;47.180;9.776;2023-03-09T18:56:42;10.00;99.90
19224;DHT22;9746;47.180;9.776;2023-03-09T18:59:12;9.90;99.90
19224;DHT22;9746;47.180;9.776;2023-03-09T19:01:46;9.90;99.90
19224;DHT22;9746;47.180;9.776;2023-03-09T19:04:13;9.80;99.90
19224;DHT22;9746;47.180;9.776;2023-03-09T19:06:49;9.80;99.90
19224;DHT22;9746;47.180;9.776;2023-03-09T19:09:17;9.70;99.90
19224;DHT22;9746;47.180;9.776;2023-03-09T19:11:44;9.70;99.90
19224;DHT22;9746;47.180;9.776;2023-03-09T19:14:14;9.60;99.90
19224;DHT22;9746;47.180;9.776;2023-03-09T19:16:47;9.60;99.90
19224;DHT22;9746;47.180;9.776;2023-03-09T19:19:14;9.60;99.90
19224;DHT22;9746;47.180;9.776;2023-03-09T19:21:49;9.50;99.90
19224;DHT22;9746;47.180;9.776;2023-03-09T19:24:16;9.50;99.90
19224;DHT22;9746;47.180;9.776;2023-03-09T19:26:54;9.40;99.90
19224;DHT22;9746;47.180;9.776;2023-03-09T19:29:23;9.30;99.90
19224;DHT22;9746;47.180;9.776;2023-03-09T19:31:59;9.30;99.90
19224;DHT22;9746;47.180;9.776;2023-03-09T19:34:28;9.30;99.90
19224;DHT22;9746;47.180;9.776;2023-03-09T19:36:56;9.30;99.90
19224;DHT22;9746;47.180;9.776;2023-03-09T19:39:23;9.30;99.90
19224;DHT22;9746;47.180;9.776;2023-03-09T19:42:07;9.30;99.90
19224;DHT22;9746;47.180;9.776;2023-03-09T19:44:36;9.30;99.90
19224;DHT22;9746;47.180;9.776;2023-03-09T19:47:07;9.30;99.90
19224;DHT22;9746;47.180;9.776;2023-03-09T19:49:35;9.30;99.90
19224;DHT22;9746;47.180;9.776;2023-03-09T19:52:08;9.20;99.90
19224;DHT22;9746;47.180;9.776;2023-03-09T19:54:36;9.20;99.90
19224;DHT22;9746;47.180;9.776;2023-03-09T19:57:04;9.10;99.90
19224;DHT22;9746;47.180;9.776;2023-03-09T19:59:31;9.10;99.90
19224;DHT22;9746;47.180;9.776;2023-03-09T20:02:08;9.10;99.90
19224;DHT22;9746;47.180;9.776;2023-03-09T20:04:36;9.00;99.90
19224;DHT22;9746;47.180;9.776;2023-03-09T20:07:13;9.00;99.90
19224;DHT22;9746;47.180;9.776;2023-03-09T20:09:40;9.00;99.90
19224;DHT22;9746;47.180;9.776;2023-03-09T20:12:09;8.90;99.90
19224;DHT22;9746;47.180;9.776;2023-03-09T20:14:37;8.90;99.90
19224;DHT22;9746;47.180;9.776;2023-03-09T20:17:11;8.90;99.90
19224;DHT22;9746;47.180;9.776;2023-03-09T20:19:39;8.90;99.90
19224;DHT22;9746;47.180;9.776;2023-03-09T20:22:14;8.80;99.90
19224;DHT22;9746;47.180;9.776;2023-03-09T20:24:44;8.80;99.90
19224;DHT22;9746;47.180;9.776;2023-03-09T20:27:21;8.80;99.90
19224;DHT22;9746;47.180;9.776;2023-03-09T20:29:52;8.70;99.90
19224;DHT22;9746;47.180;9.776;2023-03-09T20:32:23;8.60;99.90
19224;DHT22;9746;47.180;9.776;2023-03-09T20:34:50;8.50;99.90
19224;DHT22;9746;47.180;9.776;2023-03-09T20:37:27;8.30;99.90
19224;DHT22;9746;47.180;9.776;2023-03-09T20:39:54;8.10;99.90
19224;DHT22;9746;47.180;9.776;2023-03-09T20:42:22;8.00;99.90
19224;DHT22;9746;47.180;9.776;2023-03-09T20:44:50;7.90;99.90
19224;DHT22;9746;47.180;9.776;2023-03-09T20:47:17;7.90;99.90
19224;DHT22;9746;47.180;9.776;2023-03-09T20:49:46;7.70;99.90
19224;DHT22;9746;47.180;9.776;2023-03-09T20:52:16;7.60;99.90
19224;DHT22;9746;47.180;9.776;2023-03-09T20:54:43;7.50;99.90
19224;DHT22;9746;47.180;9.776;2023-03-09T20:57:36;7.40;99.90
19224;DHT22;9746;47.180;9.776;2023-03-09T21:00:04;7.30;99.90
19224;DHT22;9746;47.180;9.776;2023-03-09T21:02:52;7.20;99.90
19224;DHT22;9746;47.180;9.776;2023-03-09T21:05:22;7.10;99.90
19224;DHT22;9746;47.180;9.776;2023-03-09T21:07:51;7.10;99.90
19224;DHT22;9746;47.180;9.776;2023-03-09T21:10:20;7.10;99.90
19224;DHT22;9746;47.180;9.776;2023-03-09T21:12:48;7.00;99.90
19224;DHT22;9746;47.180;9.776;2023-03-09T21:15:15;7.00;99.90
19224;DHT22;9746;47.180;9.776;2023-03-09T21:17:44;7.00;99.90
19224;DHT22;9746;47.180;9.776;2023-03-09T21:20:12;6.90;99.90
